Time;durP1;ratioP1;P1;durP2;ratioP2;P2;SDS_P1;SDS_P2;PMS_P1;PMS_P2;Temp;Humidity;BMP_temperature;BMP_pressure;BME280_temperature;BME280_humidity;BME280_pressure;Samples;Min_cycle;Max_cycle;Signal;HPM_P1;HPM_P2
2021/01/17 00:01:03;;;;;;;9.67;4.73;;;;;;;-1.25;72.87;101096.34;119764;1154;65098;-86
2021/01/17 00:03:30;;;;;;;9.03;5.00;;;;;;;-1.24;71.37;101089.37;120778;1152;65124;-87
2021/01/17 00:05:56;;;;;;;5.13;2.80;;;;;;;-1.24;72.56;101086.77;119983;1154;63988;-84
2021/01/17 00:08:23;;;;;;;10.63;6.20;;;;;;;-1.21;71.65;101090.95;120381;1153;65053;-84
2021/01/17 00:10:50;;;;;;;8.30;4.60;;;;;;;-1.22;71.85;101090.12;120411;1154;65162;-83
2021/01/17 00:13:16;;;;;;;11.10;6.30;;;;;;;-1.22;71.73;101092.72;120398;1154;63374;-83
2021/01/17 00:15:43;;;;;;;13.30;5.85;;;;;;;-1.24;71.18;101082.39;120394;1153;65156;-84
2021/01/17 00:18:10;;;;;;;10.53;6.07;;;;;;;-1.24;70.87;101077.19;120504;1153;65156;-84
2021/01/17 00:20:44;;;;;;;8.93;4.77;;;;;;;-1.25;72.39;101078.13;119683;1154;65121;-85
2021/01/17 00:23:10;;;;;;;6.07;3.33;;;;;;;-1.24;70.66;101076.36;119799;1154;65239;-85
2021/01/17 00:25:36;;;;;;;8.50;4.58;;;;;;;-1.27;71.49;101072.17;119721;1154;65140;-84
2021/01/17 00:28:03;;;;;;;9.77;5.60;;;;;;;-1.28;72.08;101067.87;119541;1153;65197;-84
2021/01/17 00:30:31;;;;;;;7.73;4.23;;;;;;;-1.31;70.63;101072.45;119906;1153;66264;-84
2021/01/17 00:32:59;;;;;;;10.23;5.10;;;;;;;-1.35;71.50;101063.14;119811;1154;65562;-83
2021/01/17 00:35:28;;;;;;;10.20;4.67;;;;;;;-1.40;71.36;101059.94;119972;1154;65040;-83
2021/01/17 00:37:57;;;;;;;9.77;6.17;;;;;;;-1.43;71.85;101060.97;120003;1153;65219;-83
2021/01/17 00:40:24;;;;;;;9.40;4.50;;;;;;;-1.46;72.03;101061.16;119930;1153;65096;-86
2021/01/17 00:42:52;;;;;;;11.00;6.07;;;;;;;-1.46;72.08;101051.58;120053;1154;65220;-83
2021/01/17 00:45:19;;;;;;;9.80;5.90;;;;;;;-1.49;72.35;101051.77;119689;1153;66215;-82
2021/01/17 00:47:48;;;;;;;10.60;6.13;;;;;;;-1.48;71.71;101052.60;119456;1154;65845;-84
2021/01/17 00:50:17;;;;;;;7.03;4.97;;;;;;;-1.51;71.26;101042.35;120306;1152;63739;-84
2021/01/17 00:52:55;;;;;;;9.00;3.80;;;;;;;-1.52;72.58;101048.50;120425;1153;65124;-83
2021/01/17 00:55:21;;;;;;;6.33;2.77;;;;;;;-1.54;71.33;101047.75;120516;1153;64336;-83
2021/01/17 00:57:48;;;;;;;9.87;5.53;;;;;;;-1.55;71.15;101036.52;119890;1154;65059;-83
2021/01/17 01:00:17;;;;;;;10.70;5.50;;;;;;;-1.58;71.64;101035.84;120430;1153;63898;-84
2021/01/17 01:02:43;;;;;;;8.87;4.47;;;;;;;-1.57;71.18;101043.56;120431;1154;62967;-83
2021/01/17 01:05:13;;;;;;;7.80;4.35;;;;;;;-1.59;70.85;101042.81;120591;1153;63082;-84
2021/01/17 01:07:42;;;;;;;9.40;5.80;;;;;;;-1.58;71.52;101041.05;120399;1153;65220;-84
2021/01/17 01:10:11;;;;;;;9.23;5.17;;;;;;;-1.58;71.35;101041.05;119738;1154;65301;-86
2021/01/17 01:12:37;;;;;;;9.40;5.60;;;;;;;-1.58;71.43;101041.88;119856;1153;65159;-86
2021/01/17 01:15:06;;;;;;;7.80;4.00;;;;;;;-1.61;71.80;101039.46;119930;1153;65165;-86
2021/01/17 01:17:32;;;;;;;9.03;5.20;;;;;;;-1.63;70.95;101038.70;119774;1153;64354;-84
2021/01/17 01:19:58;;;;;;;11.13;6.03;;;;;;;-1.65;71.54;101036.19;119696;1153;66425;-83
2021/01/17 01:22:24;;;;;;;10.90;5.70;;;;;;;-1.65;70.16;101036.19;120034;1154;65223;-85
2021/01/17 01:24:51;;;;;;;5.75;4.20;;;;;;;-1.68;70.47;101041.58;120025;1153;65140;-85
2021/01/17 01:27:17;;;;;;;10.97;5.73;;;;;;;-1.70;70.08;101033.02;119910;1153;65118;-84
2021/01/17 01:29:43;;;;;;;8.37;4.50;;;;;;;-1.72;70.75;101034.88;119979;1153;65238;-83
2021/01/17 01:32:12;;;;;;;9.85;5.12;;;;;;;-1.72;70.34;101029.67;119987;1154;65168;-85
2021/01/17 01:34:39;;;;;;;8.23;3.97;;;;;;;-1.75;70.25;101029.83;120025;1154;65191;-86
2021/01/17 01:37:06;;;;;;;9.23;5.20;;;;;;;-1.75;70.08;101029.83;119849;1153;65191;-84
2021/01/17 01:39:32;;;;;;;8.07;4.73;;;;;;;-1.76;70.40;101035.14;120072;1153;65056;-84
2021/01/17 01:42:04;;;;;;;8.77;4.33;;;;;;;-1.78;71.10;101029.19;120221;1153;65369;-84
2021/01/17 01:44:30;;;;;;;8.57;4.00;;;;;;;-1.78;71.05;101017.02;119883;1153;65200;-84
2021/01/17 01:46:56;;;;;;;7.90;4.50;;;;;;;-1.77;70.61;101030.84;119712;1153;65043;-85
2021/01/17 01:49:23;;;;;;;7.37;4.73;;;;;;;-1.76;70.22;101022.97;119932;1153;65137;-85
2021/01/17 01:51:50;;;;;;;9.67;4.40;;;;;;;-1.76;70.26;101028.17;120566;1153;65079;-82
2021/01/17 01:54:16;;;;;;;8.17;4.57;;;;;;;-1.78;70.39;101019.61;120843;1153;65018;-84
2021/01/17 01:56:42;;;;;;;7.50;3.87;;;;;;;-1.76;70.27;101022.97;120165;1154;64093;-82
2021/01/17 01:59:09;;;;;;;6.63;4.10;;;;;;;-1.77;69.93;101017.84;119649;1153;65145;-86
2021/01/17 02:01:35;;;;;;;7.87;4.47;;;;;;;-1.75;71.11;101019.42;119798;1153;65104;-84
2021/01/17 02:04:01;;;;;;;9.07;4.50;;;;;;;-1.71;70.74;101015.73;119729;1153;65124;-85
2021/01/17 02:06:28;;;;;;;6.07;4.13;;;;;;;-1.71;71.07;101013.13;119800;1153;65968;-84
2021/01/17 02:09:18;;;;;;;6.73;3.97;;;;;;;-1.70;70.76;101012.22;119532;1154;66344;-85
2021/01/17 02:12:23;;;;;;;8.20;5.07;;;;;;;-1.72;69.50;100998.46;119826;1153;63670;-84
2021/01/17 02:15:01;;;;;;;7.33;4.00;;;;;;;-1.78;69.65;100996.21;120084;1154;65101;-83
2021/01/17 02:17:29;;;;;;;6.37;3.83;;;;;;;-1.80;70.52;100995.46;119912;1153;65043;-84
2021/01/17 02:20:14;;;;;;;5.03;3.10;;;;;;;-1.82;70.65;100997.31;119801;1153;65201;-84
2021/01/17 02:23:02;;;;;;;7.33;4.37;;;;;;;-1.88;70.67;100989.86;119845;1153;65196;-85
2021/01/17 02:25:34;;;;;;;7.57;3.87;;;;;;;-1.92;70.46;100986.58;119731;1154;65233;-83
2021/01/17 02:28:04;;;;;;;11.03;4.93;;;;;;;-1.94;70.86;100990.20;119929;1154;65148;-84
2021/01/17 02:30:33;;;;;;;5.77;3.37;;;;;;;-1.99;71.36;100994.84;119918;1153;65170;-82
2021/01/17 02:33:04;;;;;;;7.63;4.10;;;;;;;-2.00;71.15;100987.95;119664;1153;63762;-83
2021/01/17 02:35:33;;;;;;;8.00;4.17;;;;;;;-2.03;71.26;100993.33;119938;1153;65287;-83
2021/01/17 02:38:35;;;;;;;10.20;4.57;;;;;;;-1.98;71.45;101001.70;119914;1154;65153;-82
2021/01/17 02:41:29;;;;;;;9.70;4.20;;;;;;;-1.98;70.96;100986.09;120010;1154;65212;-85
2021/01/17 02:43:55;;;;;;;9.47;4.57;;;;;;;-1.95;72.16;100985.94;120396;1152;65037;-84
2021/01/17 02:46:22;;;;;;;7.57;4.37;;;;;;;-1.96;72.51;100979.05;120160;1153;65134;-83
2021/01/17 02:48:48;;;;;;;7.60;4.30;;;;;;;-1.96;72.50;100979.05;120115;1153;65107;-81
2021/01/17 02:51:14;;;;;;;7.75;4.35;;;;;;;-1.95;71.56;100980.74;120108;1153;65018;-84
2021/01/17 02:53:45;;;;;;;8.53;4.63;;;;;;;-1.91;72.01;100977.05;119840;1153;65134;-83
2021/01/17 02:56:18;;;;;;;10.43;4.27;;;;;;;-1.90;72.19;100983.91;119810;1154;65107;-84
2021/01/17 02:58:51;;;;;;;6.77;4.60;;;;;;;-1.90;72.36;100979.53;119658;1153;65018;-82
2021/01/17 03:01:21;;;;;;;10.07;5.33;;;;;;;-1.90;71.81;100979.53;120713;1152;65182;-91
2021/01/17 03:03:49;;;;;;;6.03;3.53;;;;;;;-1.87;71.02;100979.37;120586;1153;65991;-85
2021/01/17 03:06:17;;;;;;;7.67;4.43;;;;;;;-1.86;71.39;100975.01;120681;1153;65130;-83
2021/01/17 03:08:43;;;;;;;10.03;4.47;;;;;;;-1.86;71.72;100977.61;120569;1153;65153;-84
2021/01/17 03:11:10;;;;;;;6.13;3.93;;;;;;;-1.87;72.11;100973.31;119903;1154;65146;-85
2021/01/17 03:13:39;;;;;;;10.93;4.63;;;;;;;-1.86;72.11;100967.20;119977;1154;65222;-82
2021/01/17 03:16:07;;;;;;;6.67;3.90;;;;;;;-1.86;71.73;100969.80;120213;1153;65159;-84
2021/01/17 03:18:34;;;;;;;9.30;4.80;;;;;;;-1.86;71.64;100970.64;120800;1153;65133;-83
2021/01/17 03:21:00;;;;;;;9.00;4.27;;;;;;;-1.88;72.43;100966.45;120893;1153;65028;-83
2021/01/17 03:23:27;;;;;;;9.73;5.10;;;;;;;-1.88;71.67;100969.05;120643;1153;65111;-84
2021/01/17 03:25:53;;;;;;;7.83;4.07;;;;;;;-1.88;72.06;100961.25;119733;1154;65092;-85
2021/01/17 03:28:19;;;;;;;9.90;4.00;;;;;;;-1.90;71.57;100970.91;120139;1153;65108;-85
2021/01/17 03:30:46;;;;;;;9.57;4.43;;;;;;;-1.92;72.69;100970.98;122358;1152;62519;-84
2021/01/17 03:33:12;;;;;;;6.83;3.57;;;;;;;-1.92;71.33;100970.16;122370;1153;64100;-84
2021/01/17 03:35:38;;;;;;;7.50;3.70;;;;;;;-1.97;72.17;100966.99;122210;1153;64784;-83
2021/01/17 03:38:04;;;;;;;5.10;2.73;;;;;;;-1.97;71.10;100974.80;121649;1153;65030;-83
2021/01/17 03:40:31;;;;;;;6.13;2.77;;;;;;;-2.00;71.19;100973.17;120354;1153;65306;-83
2021/01/17 03:42:57;;;;;;;8.00;3.40;;;;;;;-2.01;72.25;100973.29;119602;1153;65153;-84
2021/01/17 03:45:23;;;;;;;7.80;4.30;;;;;;;-2.02;72.31;100977.62;119150;1154;65203;-86
2021/01/17 03:47:49;;;;;;;6.93;3.50;;;;;;;-2.03;71.93;100975.97;119532;1153;65251;-85
2021/01/17 03:50:17;;;;;;;8.90;4.93;;;;;;;-2.03;71.59;100967.34;119623;1153;65140;-86
2021/01/17 03:52:43;;;;;;;6.00;3.13;;;;;;;-2.06;71.84;100963.98;119814;1153;65177;-85
2021/01/17 03:55:10;;;;;;;6.20;3.85;;;;;;;-2.06;70.91;100968.36;120122;1153;65053;-83
2021/01/17 03:57:36;;;;;;;6.20;3.33;;;;;;;-2.08;70.90;100971.03;120545;1154;65117;-83
2021/01/17 04:00:05;;;;;;;11.67;5.37;;;;;;;-2.08;70.58;100976.23;120278;1153;65146;-83
2021/01/17 04:02:32;;;;;;;6.90;2.67;;;;;;;-2.09;71.07;100973.70;119970;1153;65116;-85
2021/01/17 04:04:59;;;;;;;5.90;3.07;;;;;;;-2.08;71.49;100971.03;119770;1154;65122;-84
2021/01/17 04:07:28;;;;;;;5.37;2.43;;;;;;;-2.09;71.87;100969.34;119696;1153;65043;-84
2021/01/17 04:09:55;;;;;;;8.33;4.97;;;;;;;-2.09;71.47;100964.14;119534;1153;65036;-84
2021/01/17 04:12:21;;;;;;;9.50;4.93;;;;;;;-2.08;72.13;100971.03;120094;1154;65069;-82
2021/01/17 04:14:47;;;;;;;5.13;3.27;;;;;;;-2.07;72.37;100971.86;120133;1153;65111;-83
2021/01/17 04:17:14;;;;;;;4.77;3.00;;;;;;;-2.09;71.70;100969.34;120232;1154;65817;-83
2021/01/17 04:19:40;;;;;;;9.90;4.70;;;;;;;-2.07;72.36;100971.86;120275;1153;64349;-83
2021/01/17 04:22:07;;;;;;;6.13;3.60;;;;;;;-2.08;72.08;100962.41;120205;1153;65171;-83
2021/01/17 04:24:33;;;;;;;5.75;3.45;;;;;;;-2.08;72.18;100965.00;119769;1154;65207;-83
2021/01/17 04:26:59;;;;;;;10.33;4.47;;;;;;;-2.10;72.80;100967.68;120057;1153;65202;-85
2021/01/17 04:29:26;;;;;;;5.40;3.13;;;;;;;-2.08;73.18;100965.84;119976;1153;65056;-83
2021/01/17 04:31:52;;;;;;;10.33;5.13;;;;;;;-2.10;73.02;100962.48;120061;1153;65077;-83
2021/01/17 04:34:22;;;;;;;5.53;2.57;;;;;;;-2.10;73.43;100972.88;120295;1153;64210;-84
2021/01/17 04:36:50;;;;;;;10.43;4.70;;;;;;;-2.11;73.25;100976.39;119929;1153;65069;-83
2021/01/17 04:39:16;;;;;;;5.53;2.30;;;;;;;-2.12;73.65;100972.13;119984;1153;65216;-83
2021/01/17 04:41:45;;;;;;;5.00;2.65;;;;;;;-2.12;72.56;100961.73;119947;1153;65037;-82
2021/01/17 04:44:13;;;;;;;8.47;4.80;;;;;;;-2.12;73.21;100959.13;120116;1153;65133;-83
2021/01/17 04:46:41;;;;;;;7.03;3.40;;;;;;;-2.14;73.76;100965.34;120469;1153;64230;-83
2021/01/17 04:49:09;;;;;;;3.80;2.15;;;;;;;-2.13;73.06;100961.81;120327;1153;65137;-84
2021/01/17 04:51:36;;;;;;;4.90;2.70;;;;;;;-2.13;73.55;100973.03;119607;1154;65191;-84
2021/01/17 04:54:04;;;;;;;7.70;3.00;;;;;;;-2.14;73.69;100960.98;120259;1153;65066;-83
2021/01/17 04:56:42;;;;;;;5.60;2.90;;;;;;;-2.17;73.88;100968.10;120425;1152;65114;-84
2021/01/17 04:59:12;;;;;;;8.77;4.47;;;;;;;-2.18;73.39;100969.88;120219;1154;65202;-83
2021/01/17 05:02:04;;;;;;;6.57;2.93;;;;;;;-2.18;73.35;100969.04;119861;1153;65326;-85
2021/01/17 05:04:37;;;;;;;6.17;3.93;;;;;;;-2.18;73.03;100969.88;119810;1153;65182;-85
2021/01/17 05:07:21;;;;;;;4.80;1.70;;;;;;;-2.19;72.27;100968.21;119760;1152;65159;-84
2021/01/17 05:10:15;;;;;;;7.50;3.33;;;;;;;-2.18;73.10;100969.88;119778;1154;65220;-84
2021/01/17 05:12:51;;;;;;;9.40;4.03;;;;;;;-2.18;72.13;100969.04;119812;1153;65104;-83
2021/01/17 05:15:22;;;;;;;5.13;2.43;;;;;;;-2.18;72.39;100972.47;119696;1153;65185;-83
2021/01/17 05:17:55;;;;;;;7.53;3.87;;;;;;;-2.18;72.12;100982.03;119789;1152;65261;-83
2021/01/17 05:20:22;;;;;;;4.07;2.20;;;;;;;-2.18;72.10;100979.44;120378;1153;65148;-82
2021/01/17 05:22:48;;;;;;;6.53;3.07;;;;;;;-2.17;72.45;100981.09;120095;1153;65510;-82
2021/01/17 05:25:17;;;;;;;6.87;3.27;;;;;;;-2.18;71.46;100985.47;119807;1152;65136;-82
2021/01/17 05:27:49;;;;;;;6.47;3.33;;;;;;;-2.17;72.31;100979.33;119959;1154;65150;-84
2021/01/17 05:30:15;;;;;;;4.40;2.37;;;;;;;-2.18;71.87;100982.03;119676;1153;65101;-86
2021/01/17 05:32:43;;;;;;;9.10;4.97;;;;;;;-2.16;71.76;100985.39;119546;1153;65133;-84
2021/01/17 05:35:10;;;;;;;2.93;1.93;;;;;;;-2.17;72.61;100992.32;120629;1154;65239;-84
2021/01/17 05:37:47;;;;;;;9.77;4.23;;;;;;;-2.15;72.45;100987.88;120475;1153;65229;-85
2021/01/17 05:40:15;;;;;;;2.97;1.30;;;;;;;-2.15;72.37;100998.27;120465;1153;65153;-85
2021/01/17 05:42:44;;;;;;;7.53;4.70;;;;;;;-2.14;71.40;100999.97;120161;1153;65259;-84
2021/01/17 05:45:15;;;;;;;6.37;3.07;;;;;;;-2.15;72.30;100990.48;120004;1153;65079;-86
2021/01/17 05:47:51;;;;;;;10.23;4.80;;;;;;;-2.12;71.47;101000.72;119816;1153;65064;-86
2021/01/17 05:50:19;;;;;;;4.47;2.23;;;;;;;-2.12;72.36;100995.52;119776;1153;65092;-86
2021/01/17 05:52:54;;;;;;;5.90;3.07;;;;;;;-2.11;72.28;101002.38;119916;1153;65136;-86
2021/01/17 05:55:39;;;;;;;8.83;4.40;;;;;;;-2.11;72.44;101002.38;120111;1153;65140;-85
2021/01/17 05:58:31;;;;;;;10.60;4.30;;;;;;;-2.08;72.46;100999.63;120029;1153;65159;-85
2021/01/17 06:01:15;;;;;;;7.90;4.20;;;;;;;-2.05;71.73;101002.04;120080;1153;65245;-85
2021/01/17 06:03:55;;;;;;;8.65;4.45;;;;;;;-2.03;72.31;100998.53;119984;1152;65125;-84
2021/01/17 06:06:30;;;;;;;6.17;2.77;;;;;;;-2.05;71.69;100996.84;119602;1153;65169;-85
2021/01/17 06:09:00;;;;;;;;;;;;;;;-2.06;71.76;101004.75;119779;1153;65201;-85
2021/01/17 06:11:27;;;;;;;8.83;4.70;;;;;;;-2.07;72.53;101006.48;119914;1152;65137;-84
2021/01/17 06:13:56;;;;;;;6.07;3.40;;;;;;;-2.08;72.06;101004.83;119734;1154;65175;-83
2021/01/17 06:16:33;;;;;;;5.13;2.43;;;;;;;-2.08;72.74;101001.39;119835;1153;65117;-83
2021/01/17 06:19:09;;;;;;;4.80;2.43;;;;;;;-2.11;71.96;101004.14;119978;1153;65134;-84
2021/01/17 06:21:37;;;;;;;6.37;2.90;;;;;;;-2.12;72.63;101000.72;119926;1154;65243;-83
2021/01/17 06:24:05;;;;;;;5.67;2.70;;;;;;;-2.14;73.02;101001.73;119903;1153;65143;-83
2021/01/17 06:26:33;;;;;;;5.20;2.30;;;;;;;-2.14;73.28;100999.14;119762;1153;65167;-85
2021/01/17 06:29:04;;;;;;;6.27;2.53;;;;;;;-2.16;73.05;101007.01;119890;1153;65146;-85
2021/01/17 06:31:31;;;;;;;6.20;3.33;;;;;;;-2.16;72.96;101014.80;119867;1153;65823;-84
2021/01/17 06:34:06;;;;;;;7.95;4.00;;;;;;;-2.18;73.38;101010.63;119812;1153;65306;-83
2021/01/17 06:36:33;;;;;;;5.07;2.57;;;;;;;-2.17;73.17;101012.28;120097;1153;65110;-82
2021/01/17 06:39:00;;;;;;;8.00;3.13;;;;;;;-2.17;72.95;101010.52;120091;1153;65340;-82
2021/01/17 06:41:33;;;;;;;2.67;1.30;;;;;;;-2.17;72.00;101014.88;119719;1153;65146;-83
2021/01/17 06:44:07;;;;;;;3.00;1.40;;;;;;;-2.15;71.83;101020.83;119894;1153;65222;-83
2021/01/17 06:46:51;;;;;;;9.10;4.43;;;;;;;-2.16;72.19;101014.80;119852;1153;65294;-84
2021/01/17 06:49:20;;;;;;;3.77;1.83;;;;;;;-2.16;71.79;101014.80;121853;1112;65099;-83
2021/01/17 06:51:48;;;;;;;6.55;3.25;;;;;;;-2.13;71.62;101025.02;120256;1151;65041;-83
2021/01/17 06:54:17;;;;;;;5.50;3.27;;;;;;;-2.13;71.09;101032.81;119833;1153;65233;-83
2021/01/17 06:56:45;;;;;;;5.73;2.60;;;;;;;-2.11;71.64;101033.56;120294;1153;65228;-85
2021/01/17 06:59:28;;;;;;;10.67;4.37;;;;;;;-2.10;70.78;101032.66;120121;1151;65284;-84
2021/01/17 07:02:06;;;;;;;4.50;2.73;;;;;;;-2.07;70.78;101037.67;119783;1153;65184;-84
2021/01/17 07:04:41;;;;;;;6.30;3.80;;;;;;;-2.06;71.90;101035.94;120203;1152;65131;-83
2021/01/17 07:07:14;;;;;;;8.70;4.20;;;;;;;-2.05;71.78;101035.83;120068;1153;65140;-83
2021/01/17 07:09:48;;;;;;;7.43;4.47;;;;;;;-2.02;71.96;101036.58;119905;1151;65545;-80
2021/01/17 07:12:45;;;;;;;5.80;2.90;;;;;;;-2.01;71.87;101035.67;119825;1152;65130;-82
2021/01/17 07:15:12;;;;;;;6.47;4.30;;;;;;;-2.02;71.75;101039.19;119814;1153;65146;-83
2021/01/17 07:17:43;;;;;;;3.75;2.10;;;;;;;-2.01;71.09;101043.48;119786;1152;65083;-83
2021/01/17 07:20:12;;;;;;;5.63;3.00;;;;;;;-2.02;71.13;101042.61;119758;1151;65577;-84
2021/01/17 07:22:42;;;;;;;6.30;3.15;;;;;;;-1.99;71.02;101041.63;120576;1151;65133;-83
2021/01/17 07:25:11;;;;;;;5.77;2.50;;;;;;;-1.99;72.03;101042.46;120075;1151;64769;-81
2021/01/17 07:28:03;;;;;;;6.05;3.45;;;;;;;-1.97;71.65;101039.78;120716;1153;63774;-84
2021/01/17 07:30:35;;;;;;;7.97;3.87;;;;;;;-1.97;71.58;101039.78;120153;1151;65072;-84
2021/01/17 07:33:07;;;;;;;4.65;2.00;;;;;;;-1.99;70.95;101042.46;120356;1151;65124;-83
2021/01/17 07:35:47;;;;;;;7.13;3.67;;;;;;;-1.96;71.29;101041.45;120212;1152;65143;-84
2021/01/17 07:38:13;;;;;;;5.03;2.10;;;;;;;-1.97;71.70;101043.22;119957;1153;65017;-84
2021/01/17 07:40:50;;;;;;;7.17;3.00;;;;;;;-1.94;70.63;101044.80;119907;1154;65066;-83
2021/01/17 07:43:31;;;;;;;5.90;2.60;;;;;;;-1.95;71.74;101043.97;119819;1153;65052;-84
2021/01/17 07:46:09;;;;;;;5.13;2.20;;;;;;;-1.95;71.68;101038.77;120391;1153;65609;-84
2021/01/17 07:48:36;;;;;;;7.90;4.40;;;;;;;-1.92;70.63;101038.58;120250;1153;65932;-87
2021/01/17 07:51:07;;;;;;;4.57;2.07;;;;;;;-1.92;71.64;101045.55;119895;1153;65117;-83
2021/01/17 07:53:38;;;;;;;8.43;3.77;;;;;;;-1.89;70.62;101055.77;119871;1151;65076;-84
2021/01/17 07:56:15;;;;;;;6.00;3.30;;;;;;;-1.87;71.85;101056.52;120202;1153;65054;-85
2021/01/17 07:58:47;;;;;;;8.20;4.00;;;;;;;-1.83;71.04;101067.59;119711;1151;65117;-84
2021/01/17 08:01:35;;;;;;;6.10;2.93;;;;;;;-1.83;70.51;101058.03;120416;1153;66217;-84
2021/01/17 08:04:02;;;;;;;12.75;6.30;;;;;;;-1.79;70.77;101064.73;120277;1152;65242;-87
2021/01/17 08:06:34;;;;;;;10.53;5.57;;;;;;;-1.77;71.75;101068.09;120455;1151;65107;-86
2021/01/17 08:09:16;;;;;;;4.73;2.40;;;;;;;-1.73;71.42;101064.39;120176;1151;65034;-83
2021/01/17 08:11:56;;;;;;;9.23;4.23;;;;;;;-1.68;70.30;101064.13;120018;1151;65053;-84
2021/01/17 08:14:23;;;;;;;9.20;3.33;;;;;;;-1.66;69.77;101076.14;119821;1153;65181;-85
2021/01/17 08:17:19;;;;;;;7.90;3.50;;;;;;;-1.61;70.80;101073.28;119842;1151;65133;-83
2021/01/17 08:20:01;;;;;;;9.10;4.15;;;;;;;-1.54;70.33;101073.77;119960;1151;65133;-84
2021/01/17 08:22:30;;;;;;;5.57;3.37;;;;;;;-1.50;70.39;101080.47;119606;1151;65503;-85
2021/01/17 08:25:01;;;;;;;9.03;5.60;;;;;;;-1.44;70.99;101085.33;119940;1151;65043;-84
2021/01/17 08:27:30;;;;;;;7.20;3.90;;;;;;;-1.36;70.43;101082.27;119871;1153;65220;-84
2021/01/17 08:32:41;;;;;;;8.07;4.47;;;;;;;-1.27;70.55;101090.39;119990;1152;65114;-86
2021/01/17 08:35:20;;;;;;;4.60;2.47;;;;;;;-1.20;69.54;101087.44;119829;1152;66441;-84
2021/01/17 08:38:18;;;;;;;10.17;5.10;;;;;;;-1.20;69.01;101088.27;120617;1151;65172;-84
2021/01/17 08:40:53;;;;;;;12.77;5.20;;;;;;;-1.18;69.47;101101.20;120080;1152;66055;-88
2021/01/17 08:43:30;;;;;;;;;;;;;;;-1.19;68.89;101099.51;119930;1152;65158;-84
2021/01/17 08:45:56;;;;;;;13.37;6.23;;;;;;;-1.18;70.63;101111.61;119868;1153;65044;-83
2021/01/17 08:48:27;;;;;;;9.57;5.43;;;;;;;-1.21;70.28;101106.56;119940;1151;65168;-87
2021/01/17 08:51:24;;;;;;;11.53;6.17;;;;;;;-1.21;71.41;101109.17;120782;1153;63645;-85
2021/01/17 08:53:52;;;;;;;10.30;5.07;;;;;;;-1.26;71.57;101115.48;120184;1154;65766;-87
2021/01/17 08:56:20;;;;;;;12.03;6.43;;;;;;;-1.28;73.04;101117.33;120292;1151;65219;-85
2021/01/17 08:58:51;;;;;;;5.97;3.27;;;;;;;-1.30;72.70;101120.95;121120;1153;65146;-86
2021/01/17 09:01:21;;;;;;;10.83;6.17;;;;;;;-1.32;73.59;101115.86;120499;1153;64979;-86
2021/01/17 09:03:56;;;;;;;9.83;4.30;;;;;;;-1.36;73.65;101116.95;120193;1154;65217;-86
2021/01/17 09:06:27;;;;;;;5.90;2.87;;;;;;;-1.34;73.47;101122.91;120407;1152;65089;-86
2021/01/17 09:08:53;;;;;;;11.00;6.03;;;;;;;-1.34;73.48;101127.26;120405;1154;65105;-86
2021/01/17 09:11:29;;;;;;;8.20;4.00;;;;;;;-1.32;73.67;101125.41;120258;1151;65101;-86
2021/01/17 09:14:13;;;;;;;8.80;5.10;;;;;;;-1.29;74.00;101133.88;120129;1153;65141;-86
2021/01/17 09:16:49;;;;;;;6.42;3.10;;;;;;;-1.27;74.46;101129.44;120381;1153;65133;-87
2021/01/17 09:19:21;;;;;;;13.10;6.37;;;;;;;-1.25;74.02;101137.16;120716;1153;65041;-87
2021/01/17 09:21:51;;;;;;;7.15;3.40;;;;;;;-1.23;74.05;101145.72;120342;1153;65070;-86
2021/01/17 09:24:23;;;;;;;7.43;3.93;;;;;;;-1.20;74.70;101147.30;120418;1151;65127;-87
2021/01/17 09:26:54;;;;;;;9.30;4.33;;;;;;;-1.17;73.94;101149.72;120542;1153;65092;-87
2021/01/17 09:29:37;;;;;;;17.73;8.80;;;;;;;-1.12;74.56;101148.54;120808;1153;65148;-86
2021/01/17 09:32:15;;;;;;;5.03;2.83;;;;;;;-1.06;74.30;101148.19;120368;1151;65145;-87
2021/01/17 09:34:48;;;;;;;15.73;9.13;;;;;;;-1.01;74.12;101150.52;120585;1153;65065;-87
2021/01/17 09:37:18;;;;;;;10.67;5.40;;;;;;;-1.00;74.18;101156.56;120909;1153;65012;-86
2021/01/17 09:39:46;;;;;;;8.93;5.07;;;;;;;-0.98;74.74;101163.34;120221;1153;65143;-86
2021/01/17 09:42:19;;;;;;;11.93;6.27;;;;;;;-0.99;74.00;101166.89;120390;1153;65066;-86
2021/01/17 09:44:56;;;;;;;15.23;7.90;;;;;;;-0.97;74.14;101172.02;120516;1153;65944;-86
2021/01/17 09:47:24;;;;;;;10.53;5.87;;;;;;;-0.96;74.18;101168.48;120905;1153;65153;-86
2021/01/17 09:49:53;;;;;;;9.83;3.80;;;;;;;-0.93;75.57;101174.35;120871;1151;65117;-86
2021/01/17 09:52:22;;;;;;;8.00;4.70;;;;;;;-0.92;74.34;101180.39;120602;1151;65268;-86
2021/01/17 09:54:53;;;;;;;12.47;5.77;;;;;;;-0.91;74.88;101177.71;120765;1151;65168;-86
2021/01/17 09:57:25;;;;;;;12.50;6.13;;;;;;;-0.88;75.33;101177.52;120364;1154;65057;-86
2021/01/17 09:59:56;;;;;;;16.00;6.95;;;;;;;-0.85;74.29;101172.15;120368;1151;65951;-87
2021/01/17 10:02:30;;;;;;;12.97;6.40;;;;;;;-0.82;74.83;101176.33;120425;1153;65007;-86
2021/01/17 10:05:00;;;;;;;8.97;5.60;;;;;;;-0.75;74.69;101179.41;120441;1152;65082;-86
2021/01/17 10:07:33;;;;;;;11.93;5.67;;;;;;;-0.74;73.58;101178.50;117109;1138;2701101;-86
2021/01/17 10:10:12;;;;;;;11.23;6.30;;;;;;;-0.68;73.09;101175.50;119140;1153;65734;-87
2021/01/17 10:12:47;;;;;;;12.97;6.13;;;;;;;-0.66;72.74;101179.72;120379;1154;65082;-86
2021/01/17 10:15:36;;;;;;;10.87;5.10;;;;;;;-0.62;72.68;101183.83;120268;1154;63940;-86
2021/01/17 10:18:25;;;;;;;10.85;4.75;;;;;;;-0.62;73.16;101182.97;120112;1153;65060;-86
2021/01/17 10:20:57;;;;;;;13.27;6.50;;;;;;;-0.63;73.32;101192.55;120115;1154;65169;-86
2021/01/17 10:23:32;;;;;;;11.57;6.27;;;;;;;-0.59;73.27;101197.60;120571;1153;65235;-86
2021/01/17 10:26:23;;;;;;;7.27;3.23;;;;;;;-0.57;72.73;101188.77;120160;1154;65239;-86
2021/01/17 10:29:10;;;;;;;13.37;6.43;;;;;;;-0.53;72.67;101187.66;120405;1153;65245;-87
2021/01/17 10:31:47;;;;;;;14.70;8.77;;;;;;;-0.49;72.99;101193.50;120455;1116;65144;-87
2021/01/17 10:34:33;;;;;;;10.17;4.63;;;;;;;-0.43;71.76;101199.18;120322;1116;65075;-86
2021/01/17 10:37:11;;;;;;;10.53;4.57;;;;;;;-0.43;71.54;101190.53;120235;1152;64979;-86
2021/01/17 10:39:57;;;;;;;11.17;6.27;;;;;;;-0.44;71.91;101192.30;120498;1153;63786;-86
2021/01/17 10:45:18;;;;;;;12.10;6.67;;;;;;;-0.39;71.88;101183.38;120399;1152;65056;-86
2021/01/17 10:48:16;;;;;;;15.70;8.10;;;;;;;-0.34;72.70;101186.53;120383;1154;65041;-86
2021/01/17 10:51:02;;;;;;;8.77;4.70;;;;;;;-0.31;71.66;101191.58;120297;1154;65054;-86
2021/01/17 10:59:17;;;;;;;9.00;3.83;;;;;;;-0.22;72.08;101188.41;121402;1116;63945;-87
2021/01/17 11:02:07;;;;;;;17.47;9.87;;;;;;;-0.14;70.65;101191.39;120913;1154;65155;-86
2021/01/17 11:04:39;;;;;;;8.93;4.63;;;;;;;-0.05;71.33;101192.59;120165;1153;65104;-86
2021/01/17 11:07:25;;;;;;;14.60;7.87;;;;;;;0.04;71.19;101185.97;120104;1154;66362;-87
2021/01/17 11:10:23;;;;;;;8.60;4.57;;;;;;;0.12;69.48;101188.94;120381;1116;65082;-87
2021/01/17 11:13:15;;;;;;;11.03;4.97;;;;;;;0.23;70.68;101180.45;120572;1115;65114;-87
2021/01/17 11:15:43;;;;;;;12.40;6.50;;;;;;;0.25;69.76;101179.41;121062;1153;65137;-87
2021/01/17 11:18:21;;;;;;;9.23;5.00;;;;;;;0.28;69.92;101171.41;120882;1153;63797;-86
2021/01/17 11:20:59;;;;;;;9.30;4.77;;;;;;;0.36;68.88;101176.12;120617;1153;65118;-86
2021/01/17 11:23:52;;;;;;;12.13;7.13;;;;;;;0.46;69.12;101174.61;120344;1153;65041;-87
2021/01/17 11:26:37;;;;;;;12.40;4.87;;;;;;;0.58;67.99;101171.22;120882;1153;65131;-88
2021/01/17 11:29:29;;;;;;;11.43;6.22;;;;;;;0.72;68.34;101172.95;120794;1115;64204;-85
2021/01/17 11:34:57;;;;;;;7.43;4.50;;;;;;;0.95;67.92;101173.20;120096;1153;65217;-86
2021/01/17 11:37:51;;;;;;;15.67;8.40;;;;;;;1.06;67.51;101169.88;119693;1113;63965;-86
2021/01/17 11:40:33;;;;;;;8.87;4.70;;;;;;;1.09;66.53;101174.92;119672;1153;65079;-85
2021/01/17 11:43:14;;;;;;;8.70;4.77;;;;;;;1.08;65.75;101176.67;120539;1153;65069;-88
2021/01/17 11:46:08;;;;;;;9.00;5.30;;;;;;;1.08;66.24;101175.84;113264;1115;65279;-86
2021/01/17 11:48:39;;;;;;;11.60;5.47;;;;;;;1.05;65.83;101179.50;120230;1154;65226;-86
2021/01/17 11:51:24;;;;;;;16.90;7.40;;;;;;;1.07;66.37;101171.58;120434;1154;65060;-86
2021/01/17 11:53:53;;;;;;;9.83;5.77;;;;;;;1.05;65.43;101174.28;119676;1154;65461;-80
2021/01/17 11:56:20;;;;;;;15.40;9.47;;;;;;;1.09;65.79;101172.31;119077;1154;65130;-77